sensor_id;sensor_type;location;lat;lon;timestamp;P1;durP1;ratioP1;P2;durP2;ratioP2
60014;SDS011;45867;52.480;6.056;2022-07-15T00:00:10;14.45;;;2.70;;
60014;SDS011;45867;52.480;6.056;2022-07-15T00:02:37;12.60;;;2.83;;
60014;SDS011;45867;52.480;6.056;2022-07-15T00:05:03;13.82;;;2.92;;
60014;SDS011;45867;52.480;6.056;2022-07-15T00:07:28;11.25;;;2.80;;
60014;SDS011;45867;52.480;6.056;2022-07-15T00:09:53;5.47;;;2.30;;
60014;SDS011;45867;52.480;6.056;2022-07-15T00:12:37;5.00;;;2.30;;
60014;SDS011;45867;52.480;6.056;2022-07-15T00:15:03;6.33;;;2.43;;
60014;SDS011;45867;52.480;6.056;2022-07-15T00:17:28;8.40;;;2.63;;
60014;SDS011;45867;52.480;6.056;2022-07-15T00:19:53;10.30;;;2.80;;
60014;SDS011;45867;52.480;6.056;2022-07-15T00:22:19;6.72;;;2.42;;
60014;SDS011;45867;52.480;6.056;2022-07-15T00:24:44;8.57;;;2.72;;
60014;SDS011;45867;52.480;6.056;2022-07-15T00:27:10;10.27;;;3.20;;
60014;SDS011;45867;52.480;6.056;2022-07-15T00:29:36;12.52;;;3.38;;
60014;SDS011;45867;52.480;6.056;2022-07-15T00:32:01;10.35;;;2.80;;
60014;SDS011;45867;52.480;6.056;2022-07-15T00:34:27;10.32;;;2.83;;
60014;SDS011;45867;52.480;6.056;2022-07-15T00:36:52;7.85;;;2.63;;
60014;SDS011;45867;52.480;6.056;2022-07-15T00:39:17;9.05;;;2.92;;
60014;SDS011;45867;52.480;6.056;2022-07-15T00:41:43;6.68;;;2.80;;
60014;SDS011;45867;52.480;6.056;2022-07-15T00:44:08;11.48;;;2.70;;
60014;SDS011;45867;52.480;6.056;2022-07-15T00:46:34;10.95;;;3.42;;
60014;SDS011;45867;52.480;6.056;2022-07-15T00:49:00;7.60;;;2.60;;
60014;SDS011;45867;52.480;6.056;2022-07-15T00:51:26;9.68;;;2.78;;
60014;SDS011;45867;52.480;6.056;2022-07-15T00:53:53;9.18;;;2.70;;
60014;SDS011;45867;52.480;6.056;2022-07-15T00:56:19;14.80;;;3.15;;
60014;SDS011;45867;52.480;6.056;2022-07-15T00:58:46;12.07;;;3.15;;
60014;SDS011;45867;52.480;6.056;2022-07-15T01:01:12;11.45;;;2.67;;
60014;SDS011;45867;52.480;6.056;2022-07-15T01:03:39;7.05;;;2.58;;
60014;SDS011;45867;52.480;6.056;2022-07-15T01:06:05;14.35;;;2.88;;
60014;SDS011;45867;52.480;6.056;2022-07-15T01:08:30;8.88;;;2.65;;
60014;SDS011;45867;52.480;6.056;2022-07-15T01:10:56;8.38;;;2.40;;
60014;SDS011;45867;52.480;6.056;2022-07-15T01:13:21;8.75;;;2.63;;
60014;SDS011;45867;52.480;6.056;2022-07-15T01:15:47;11.32;;;2.80;;
60014;SDS011;45867;52.480;6.056;2022-07-15T01:18:13;13.43;;;2.67;;
60014;SDS011;45867;52.480;6.056;2022-07-15T01:20:39;11.90;;;2.45;;
60014;SDS011;45867;52.480;6.056;2022-07-15T01:23:05;7.93;;;2.67;;
60014;SDS011;45867;52.480;6.056;2022-07-15T01:25:30;12.18;;;2.80;;
60014;SDS011;45867;52.480;6.056;2022-07-15T01:27:56;9.90;;;2.40;;
60014;SDS011;45867;52.480;6.056;2022-07-15T01:30:21;5.72;;;2.38;;
60014;SDS011;45867;52.480;6.056;2022-07-15T01:32:47;7.90;;;2.35;;
60014;SDS011;45867;52.480;6.056;2022-07-15T01:35:12;8.30;;;2.60;;
60014;SDS011;45867;52.480;6.056;2022-07-15T01:37:37;8.30;;;2.38;;
60014;SDS011;45867;52.480;6.056;2022-07-15T01:40:03;9.90;;;2.35;;
60014;SDS011;45867;52.480;6.056;2022-07-15T01:42:29;13.55;;;2.42;;
60014;SDS011;45867;52.480;6.056;2022-07-15T01:44:54;11.43;;;2.63;;
60014;SDS011;45867;52.480;6.056;2022-07-15T01:47:19;8.10;;;2.60;;
60014;SDS011;45867;52.480;6.056;2022-07-15T01:49:44;11.83;;;2.43;;
60014;SDS011;45867;52.480;6.056;2022-07-15T01:52:10;8.43;;;2.30;;
60014;SDS011;45867;52.480;6.056;2022-07-15T01:54:35;19.80;;;2.65;;
60014;SDS011;45867;52.480;6.056;2022-07-15T01:57:01;7.05;;;2.30;;
60014;SDS011;45867;52.480;6.056;2022-07-15T01:59:26;10.13;;;2.63;;
60014;SDS011;45867;52.480;6.056;2022-07-15T02:01:52;4.78;;;2.22;;
60014;SDS011;45867;52.480;6.056;2022-07-15T02:04:18;8.05;;;2.95;;
60014;SDS011;45867;52.480;6.056;2022-07-15T02:06:44;11.07;;;2.40;;
60014;SDS011;45867;52.480;6.056;2022-07-15T02:09:11;7.55;;;2.40;;
60014;SDS011;45867;52.480;6.056;2022-07-15T02:11:36;14.73;;;2.53;;
60014;SDS011;45867;52.480;6.056;2022-07-15T02:14:02;6.43;;;2.15;;
60014;SDS011;45867;52.480;6.056;2022-07-15T02:16:28;14.35;;;2.38;;
60014;SDS011;45867;52.480;6.056;2022-07-15T02:18:54;9.65;;;2.35;;
60014;SDS011;45867;52.480;6.056;2022-07-15T02:21:19;7.38;;;2.20;;
60014;SDS011;45867;52.480;6.056;2022-07-15T02:23:44;8.98;;;2.33;;
60014;SDS011;45867;52.480;6.056;2022-07-15T02:26:10;10.23;;;2.55;;
60014;SDS011;45867;52.480;6.056;2022-07-15T02:28:35;8.32;;;2.40;;
60014;SDS011;45867;52.480;6.056;2022-07-15T02:31:00;8.77;;;2.80;;
60014;SDS011;45867;52.480;6.056;2022-07-15T02:33:26;12.50;;;2.67;;
60014;SDS011;45867;52.480;6.056;2022-07-15T02:35:51;7.95;;;2.33;;
60014;SDS011;45867;52.480;6.056;2022-07-15T02:38:17;5.43;;;2.33;;
60014;SDS011;45867;52.480;6.056;2022-07-15T02:40:43;11.60;;;2.30;;
60014;SDS011;45867;52.480;6.056;2022-07-15T02:43:08;11.30;;;2.28;;
60014;SDS011;45867;52.480;6.056;2022-07-15T02:45:34;9.30;;;2.35;;
60014;SDS011;45867;52.480;6.056;2022-07-15T02:47:59;9.13;;;2.30;;
60014;SDS011;45867;52.480;6.056;2022-07-15T02:50:25;17.25;;;2.35;;
60014;SDS011;45867;52.480;6.056;2022-07-15T02:52:50;9.63;;;2.30;;
60014;SDS011;45867;52.480;6.056;2022-07-15T02:55:16;9.35;;;2.88;;
60014;SDS011;45867;52.480;6.056;2022-07-15T02:57:41;4.82;;;2.13;;
60014;SDS011;45867;52.480;6.056;2022-07-15T03:00:10;8.48;;;2.00;;
60014;SDS011;45867;52.480;6.056;2022-07-15T03:02:37;14.23;;;2.70;;
60014;SDS011;45867;52.480;6.056;2022-07-15T03:05:02;7.65;;;2.35;;
60014;SDS011;45867;52.480;6.056;2022-07-15T03:07:29;15.38;;;2.63;;
60014;SDS011;45867;52.480;6.056;2022-07-15T03:09:54;8.68;;;2.13;;
60014;SDS011;45867;52.480;6.056;2022-07-15T03:12:20;9.63;;;2.67;;
60014;SDS011;45867;52.480;6.056;2022-07-15T03:14:45;7.93;;;2.17;;
60014;SDS011;45867;52.480;6.056;2022-07-15T03:17:10;7.47;;;2.20;;
60014;SDS011;45867;52.480;6.056;2022-07-15T03:19:36;6.07;;;2.17;;
60014;SDS011;45867;52.480;6.056;2022-07-15T03:22:01;12.23;;;2.47;;
60014;SDS011;45867;52.480;6.056;2022-07-15T03:24:26;8.65;;;2.00;;
60014;SDS011;45867;52.480;6.056;2022-07-15T03:26:51;6.70;;;2.25;;
60014;SDS011;45867;52.480;6.056;2022-07-15T03:29:17;11.93;;;2.30;;
60014;SDS011;45867;52.480;6.056;2022-07-15T03:31:43;5.93;;;1.85;;
60014;SDS011;45867;52.480;6.056;2022-07-15T03:34:08;7.93;;;2.35;;
60014;SDS011;45867;52.480;6.056;2022-07-15T03:36:35;9.45;;;2.33;;
60014;SDS011;45867;52.480;6.056;2022-07-15T03:39:02;8.40;;;2.22;;
60014;SDS011;45867;52.480;6.056;2022-07-15T03:41:28;6.55;;;2.28;;
60014;SDS011;45867;52.480;6.056;2022-07-15T03:43:53;7.78;;;2.58;;
60014;SDS011;45867;52.480;6.056;2022-07-15T03:46:19;9.35;;;2.55;;
60014;SDS011;45867;52.480;6.056;2022-07-15T03:48:44;11.77;;;2.78;;
60014;SDS011;45867;52.480;6.056;2022-07-15T03:51:09;6.97;;;2.10;;
60014;SDS011;45867;52.480;6.056;2022-07-15T03:53:35;8.38;;;2.88;;
60014;SDS011;45867;52.480;6.056;2022-07-15T03:56:00;12.10;;;2.55;;
60014;SDS011;45867;52.480;6.056;2022-07-15T03:58:25;8.60;;;2.47;;
60014;SDS011;45867;52.480;6.056;2022-07-15T04:00:50;7.35;;;2.42;;
60014;SDS011;45867;52.480;6.056;2022-07-15T04:03:16;14.10;;;2.90;;
60014;SDS011;45867;52.480;6.056;2022-07-15T04:05:44;6.85;;;2.17;;
60014;SDS011;45867;52.480;6.056;2022-07-15T04:08:09;9.55;;;2.45;;
60014;SDS011;45867;52.480;6.056;2022-07-15T04:10:35;12.18;;;3.38;;
60014;SDS011;45867;52.480;6.056;2022-07-15T04:13:00;9.40;;;2.97;;
60014;SDS011;45867;52.480;6.056;2022-07-15T04:15:25;11.77;;;3.00;;
60014;SDS011;45867;52.480;6.056;2022-07-15T04:17:51;13.15;;;2.83;;
60014;SDS011;45867;52.480;6.056;2022-07-15T04:20:16;11.68;;;2.70;;
60014;SDS011;45867;52.480;6.056;2022-07-15T04:22:42;12.50;;;2.70;;
60014;SDS011;45867;52.480;6.056;2022-07-15T04:25:08;7.00;;;2.60;;
60014;SDS011;45867;52.480;6.056;2022-07-15T04:27:33;10.25;;;2.65;;
60014;SDS011;45867;52.480;6.056;2022-07-15T04:29:58;11.32;;;2.97;;
60014;SDS011;45867;52.480;6.056;2022-07-15T04:32:24;8.50;;;2.33;;
60014;SDS011;45867;52.480;6.056;2022-07-15T04:34:51;8.90;;;2.33;;
60014;SDS011;45867;52.480;6.056;2022-07-15T04:37:16;6.70;;;2.17;;
60014;SDS011;45867;52.480;6.056;2022-07-15T04:39:41;9.07;;;2.50;;
60014;SDS011;45867;52.480;6.056;2022-07-15T04:42:06;8.20;;;2.63;;
60014;SDS011;45867;52.480;6.056;2022-07-15T04:44:32;7.82;;;2.50;;
60014;SDS011;45867;52.480;6.056;2022-07-15T04:46:57;10.73;;;2.65;;
60014;SDS011;45867;52.480;6.056;2022-07-15T04:49:22;12.48;;;2.95;;
60014;SDS011;45867;52.480;6.056;2022-07-15T04:52:11;7.05;;;2.83;;
60014;SDS011;45867;52.480;6.056;2022-07-15T04:54:36;11.63;;;3.23;;
60014;SDS011;45867;52.480;6.056;2022-07-15T04:57:01;14.80;;;2.95;;
60014;SDS011;45867;52.480;6.056;2022-07-15T04:59:29;9.20;;;2.67;;
60014;SDS011;45867;52.480;6.056;2022-07-15T05:01:54;11.57;;;2.57;;
60014;SDS011;45867;52.480;6.056;2022-07-15T05:04:19;7.50;;;2.58;;
60014;SDS011;45867;52.480;6.056;2022-07-15T05:06:44;14.07;;;2.73;;
60014;SDS011;45867;52.480;6.056;2022-07-15T05:09:10;17.63;;;2.30;;
60014;SDS011;45867;52.480;6.056;2022-07-15T05:11:35;10.70;;;2.80;;
60014;SDS011;45867;52.480;6.056;2022-07-15T05:14:00;11.68;;;2.60;;
60014;SDS011;45867;52.480;6.056;2022-07-15T05:16:26;6.43;;;2.40;;
60014;SDS011;45867;52.480;6.056;2022-07-15T05:18:51;12.32;;;2.70;;
60014;SDS011;45867;52.480;6.056;2022-07-15T05:21:16;12.13;;;2.67;;
60014;SDS011;45867;52.480;6.056;2022-07-15T05:23:42;11.63;;;2.35;;
60014;SDS011;45867;52.480;6.056;2022-07-15T05:26:07;10.48;;;2.60;;
60014;SDS011;45867;52.480;6.056;2022-07-15T05:28:37;15.18;;;2.00;;
60014;SDS011;45867;52.480;6.056;2022-07-15T05:31:04;9.35;;;2.92;;
60014;SDS011;45867;52.480;6.056;2022-07-15T05:33:30;9.48;;;2.25;;
60014;SDS011;45867;52.480;6.056;2022-07-15T05:35:55;9.63;;;1.77;;
60014;SDS011;45867;52.480;6.056;2022-07-15T05:38:20;10.70;;;1.73;;
60014;SDS011;45867;52.480;6.056;2022-07-15T05:40:46;13.32;;;2.22;;
60014;SDS011;45867;52.480;6.056;2022-07-15T05:43:11;6.72;;;1.55;;
60014;SDS011;45867;52.480;6.056;2022-07-15T05:45:36;12.55;;;1.48;;
60014;SDS011;45867;52.480;6.056;2022-07-15T05:48:02;11.30;;;1.70;;
60014;SDS011;45867;52.480;6.056;2022-07-15T05:50:27;4.45;;;1.48;;
60014;SDS011;45867;52.480;6.056;2022-07-15T05:52:52;6.90;;;2.10;;
60014;SDS011;45867;52.480;6.056;2022-07-15T05:55:18;4.82;;;1.58;;
60014;SDS011;45867;52.480;6.056;2022-07-15T05:57:43;4.50;;;1.23;;
60014;SDS011;45867;52.480;6.056;2022-07-15T06:00:08;4.97;;;1.40;;
60014;SDS011;45867;52.480;6.056;2022-07-15T06:02:34;8.77;;;1.75;;
60014;SDS011;45867;52.480;6.056;2022-07-15T06:04:59;4.28;;;1.52;;
60014;SDS011;45867;52.480;6.056;2022-07-15T06:07:36;9.80;;;1.80;;
60014;SDS011;45867;52.480;6.056;2022-07-15T06:10:02;4.32;;;1.10;;
60014;SDS011;45867;52.480;6.056;2022-07-15T06:12:37;7.53;;;1.25;;
60014;SDS011;45867;52.480;6.056;2022-07-15T06:15:02;3.85;;;1.30;;
60014;SDS011;45867;52.480;6.056;2022-07-15T06:17:28;4.70;;;1.33;;
60014;SDS011;45867;52.480;6.056;2022-07-15T06:19:53;7.88;;;1.15;;
60014;SDS011;45867;52.480;6.056;2022-07-15T06:22:18;4.53;;;0.97;;
60014;SDS011;45867;52.480;6.056;2022-07-15T06:24:43;7.63;;;1.20;;
60014;SDS011;45867;52.480;6.056;2022-07-15T06:27:09;4.82;;;1.20;;
60014;SDS011;45867;52.480;6.056;2022-07-15T06:29:35;5.63;;;1.00;;
60014;SDS011;45867;52.480;6.056;2022-07-15T06:32:00;5.80;;;1.00;;
60014;SDS011;45867;52.480;6.056;2022-07-15T06:34:25;1.67;;;0.68;;
60014;SDS011;45867;52.480;6.056;2022-07-15T06:36:51;3.17;;;0.73;;
60014;SDS011;45867;52.480;6.056;2022-07-15T06:39:16;3.00;;;1.27;;
60014;SDS011;45867;52.480;6.056;2022-07-15T06:41:42;1.30;;;0.40;;
60014;SDS011;45867;52.480;6.056;2022-07-15T06:44:07;4.20;;;0.90;;
60014;SDS011;45867;52.480;6.056;2022-07-15T06:46:32;2.22;;;1.00;;
60014;SDS011;45867;52.480;6.056;2022-07-15T06:48:58;3.53;;;0.45;;
60014;SDS011;45867;52.480;6.056;2022-07-15T06:51:24;2.72;;;0.80;;
60014;SDS011;45867;52.480;6.056;2022-07-15T06:53:50;2.58;;;0.55;;
60014;SDS011;45867;52.480;6.056;2022-07-15T06:56:15;4.40;;;0.68;;
60014;SDS011;45867;52.480;6.056;2022-07-15T06:58:40;5.07;;;0.75;;
60014;SDS011;45867;52.480;6.056;2022-07-15T07:01:16;4.03;;;0.87;;
60014;SDS011;45867;52.480;6.056;2022-07-15T07:03:41;2.03;;;0.90;;
60014;SDS011;45867;52.480;6.056;2022-07-15T07:06:07;2.40;;;0.85;;
60014;SDS011;45867;52.480;6.056;2022-07-15T07:08:33;3.25;;;0.50;;
60014;SDS011;45867;52.480;6.056;2022-07-15T07:10:58;1.20;;;0.52;;
60014;SDS011;45867;52.480;6.056;2022-07-15T07:13:24;3.15;;;0.50;;
60014;SDS011;45867;52.480;6.056;2022-07-15T07:15:49;6.10;;;0.73;;
60014;SDS011;45867;52.480;6.056;2022-07-15T07:21:33;1.65;;;0.30;;
60014;SDS011;45867;52.480;6.056;2022-07-15T07:27:06;2.92;;;0.68;;
60014;SDS011;45867;52.480;6.056;2022-07-15T07:35:42;1.38;;;0.30;;
60014;SDS011;45867;52.480;6.056;2022-07-15T07:38:08;1.13;;;0.45;;
60014;SDS011;45867;52.480;6.056;2022-07-15T07:40:33;1.92;;;0.50;;
60014;SDS011;45867;52.480;6.056;2022-07-15T07:42:59;2.30;;;0.52;;
60014;SDS011;45867;52.480;6.056;2022-07-15T07:45:24;1.45;;;0.50;;
60014;SDS011;45867;52.480;6.056;2022-07-15T07:47:49;1.85;;;0.47;;
60014;SDS011;45867;52.480;6.056;2022-07-15T07:50:15;6.03;;;0.50;;
60014;SDS011;45867;52.480;6.056;2022-07-15T07:52:40;1.90;;;0.50;;
60014;SDS011;45867;52.480;6.056;2022-07-15T07:55:07;3.35;;;0.43;;
60014;SDS011;45867;52.480;6.056;2022-07-15T07:57:32;1.13;;;0.63;;
60014;SDS011;45867;52.480;6.056;2022-07-15T07:59:57;1.80;;;0.50;;
60014;SDS011;45867;52.480;6.056;2022-07-15T08:02:23;1.95;;;0.70;;
60014;SDS011;45867;52.480;6.056;2022-07-15T08:04:49;2.08;;;0.55;;
60014;SDS011;45867;52.480;6.056;2022-07-15T08:07:14;1.17;;;0.40;;
60014;SDS011;45867;52.480;6.056;2022-07-15T08:09:39;2.65;;;0.80;;
60014;SDS011;45867;52.480;6.056;2022-07-15T08:12:05;3.28;;;0.60;;
60014;SDS011;45867;52.480;6.056;2022-07-15T08:14:30;1.15;;;0.50;;
60014;SDS011;45867;52.480;6.056;2022-07-15T08:16:55;1.57;;;0.50;;
60014;SDS011;45867;52.480;6.056;2022-07-15T08:19:20;3.38;;;0.60;;
60014;SDS011;45867;52.480;6.056;2022-07-15T08:21:46;6.60;;;0.55;;
60014;SDS011;45867;52.480;6.056;2022-07-15T08:24:11;5.75;;;1.15;;
60014;SDS011;45867;52.480;6.056;2022-07-15T08:26:37;4.93;;;1.30;;
60014;SDS011;45867;52.480;6.056;2022-07-15T08:29:03;3.25;;;1.02;;
60014;SDS011;45867;52.480;6.056;2022-07-15T08:31:29;4.25;;;1.13;;
60014;SDS011;45867;52.480;6.056;2022-07-15T08:33:57;5.32;;;1.17;;
60014;SDS011;45867;52.480;6.056;2022-07-15T08:36:22;9.07;;;1.60;;
60014;SDS011;45867;52.480;6.056;2022-07-15T08:38:47;4.25;;;0.80;;
60014;SDS011;45867;52.480;6.056;2022-07-15T08:41:14;10.48;;;1.15;;
60014;SDS011;45867;52.480;6.056;2022-07-15T08:43:39;5.20;;;1.08;;
60014;SDS011;45867;52.480;6.056;2022-07-15T08:46:05;7.18;;;1.13;;
60014;SDS011;45867;52.480;6.056;2022-07-15T08:48:31;4.03;;;0.90;;
60014;SDS011;45867;52.480;6.056;2022-07-15T08:51:00;2.92;;;0.90;;
60014;SDS011;45867;52.480;6.056;2022-07-15T08:53:27;3.53;;;1.17;;
60014;SDS011;45867;52.480;6.056;2022-07-15T08:55:54;6.22;;;1.23;;
60014;SDS011;45867;52.480;6.056;2022-07-15T08:58:34;3.78;;;0.95;;
60014;SDS011;45867;52.480;6.056;2022-07-15T09:03:45;5.38;;;0.98;;
60014;SDS011;45867;52.480;6.056;2022-07-15T09:06:18;3.92;;;1.00;;
60014;SDS011;45867;52.480;6.056;2022-07-15T09:08:54;3.97;;;1.02;;
60014;SDS011;45867;52.480;6.056;2022-07-15T09:11:26;3.23;;;0.60;;
60014;SDS011;45867;52.480;6.056;2022-07-15T09:13:51;5.25;;;0.90;;
60014;SDS011;45867;52.480;6.056;2022-07-15T09:16:18;6.07;;;1.43;;
60014;SDS011;45867;52.480;6.056;2022-07-15T09:18:48;4.43;;;1.08;;
60014;SDS011;45867;52.480;6.056;2022-07-15T09:21:14;5.93;;;1.02;;
60014;SDS011;45867;52.480;6.056;2022-07-15T09:23:40;9.45;;;1.10;;
60014;SDS011;45867;52.480;6.056;2022-07-15T09:26:22;4.80;;;0.88;;
60014;SDS011;45867;52.480;6.056;2022-07-15T09:28:48;3.35;;;0.88;;
60014;SDS011;45867;52.480;6.056;2022-07-15T09:31:26;3.15;;;0.93;;
60014;SDS011;45867;52.480;6.056;2022-07-15T09:34:09;3.08;;;0.80;;
60014;SDS011;45867;52.480;6.056;2022-07-15T09:36:35;2.95;;;1.33;;
60014;SDS011;45867;52.480;6.056;2022-07-15T09:39:05;7.03;;;0.90;;
60014;SDS011;45867;52.480;6.056;2022-07-15T09:44:10;10.93;;;1.20;;
60014;SDS011;45867;52.480;6.056;2022-07-15T09:46:49;6.28;;;0.93;;
60014;SDS011;45867;52.480;6.056;2022-07-15T09:51:44;6.13;;;1.20;;
60014;SDS011;45867;52.480;6.056;2022-07-15T09:54:11;6.28;;;1.00;;
60014;SDS011;45867;52.480;6.056;2022-07-15T09:56:39;6.70;;;1.23;;
60014;SDS011;45867;52.480;6.056;2022-07-15T09:59:05;4.85;;;0.90;;
60014;SDS011;45867;52.480;6.056;2022-07-15T10:01:31;6.78;;;1.20;;
60014;SDS011;45867;52.480;6.056;2022-07-15T10:03:57;5.05;;;0.90;;
60014;SDS011;45867;52.480;6.056;2022-07-15T10:06:23;2.45;;;0.85;;
60014;SDS011;45867;52.480;6.056;2022-07-15T10:08:50;3.78;;;0.80;;
60014;SDS011;45867;52.480;6.056;2022-07-15T10:11:15;4.95;;;1.02;;
60014;SDS011;45867;52.480;6.056;2022-07-15T10:13:54;1.65;;;0.65;;
60014;SDS011;45867;52.480;6.056;2022-07-15T10:16:37;1.08;;;0.63;;
60014;SDS011;45867;52.480;6.056;2022-07-15T10:24:38;6.38;;;0.52;;
60014;SDS011;45867;52.480;6.056;2022-07-15T10:30:03;2.78;;;0.60;;
60014;SDS011;45867;52.480;6.056;2022-07-15T10:32:29;3.63;;;0.75;;
60014;SDS011;45867;52.480;6.056;2022-07-15T10:37:23;1.27;;;0.63;;
60014;SDS011;45867;52.480;6.056;2022-07-15T10:39:57;0.90;;;0.60;;
60014;SDS011;45867;52.480;6.056;2022-07-15T10:42:56;0.65;;;0.55;;
60014;SDS011;45867;52.480;6.056;2022-07-15T10:45:16;2.38;;;0.80;;
60014;SDS011;45867;52.480;6.056;2022-07-15T10:47:41;4.63;;;1.23;;
60014;SDS011;45867;52.480;6.056;2022-07-15T10:53:05;1.17;;;0.50;;
60014;SDS011;45867;52.480;6.056;2022-07-15T10:55:36;3.80;;;0.98;;
60014;SDS011;45867;52.480;6.056;2022-07-15T10:58:01;1.40;;;0.50;;
60014;SDS011;45867;52.480;6.056;2022-07-15T11:00:33;0.90;;;0.57;;
60014;SDS011;45867;52.480;6.056;2022-07-15T11:03:10;1.33;;;0.60;;
60014;SDS011;45867;52.480;6.056;2022-07-15T11:10:56;3.53;;;0.47;;
60014;SDS011;45867;52.480;6.056;2022-07-15T11:13:31;2.50;;;0.45;;
60014;SDS011;45867;52.480;6.056;2022-07-15T11:15:58;4.13;;;0.57;;
60014;SDS011;45867;52.480;6.056;2022-07-15T11:18:23;2.33;;;0.77;;
60014;SDS011;45867;52.480;6.056;2022-07-15T11:20:48;5.33;;;0.80;;
60014;SDS011;45867;52.480;6.056;2022-07-15T11:23:14;1.77;;;0.45;;
60014;SDS011;45867;52.480;6.056;2022-07-15T11:25:42;1.60;;;0.43;;
60014;SDS011;45867;52.480;6.056;2022-07-15T11:28:11;1.55;;;0.63;;
60014;SDS011;45867;52.480;6.056;2022-07-15T11:30:47;2.08;;;0.88;;
60014;SDS011;45867;52.480;6.056;2022-07-15T11:33:30;3.45;;;0.60;;
60014;SDS011;45867;52.480;6.056;2022-07-15T11:35:56;1.87;;;0.60;;
60014;SDS011;45867;52.480;6.056;2022-07-15T11:38:30;1.65;;;0.65;;
60014;SDS011;45867;52.480;6.056;2022-07-15T11:40:57;2.50;;;0.45;;
60014;SDS011;45867;52.480;6.056;2022-07-15T11:43:41;1.95;;;0.40;;
60014;SDS011;45867;52.480;6.056;2022-07-15T11:46:26;2.25;;;0.60;;
60014;SDS011;45867;52.480;6.056;2022-07-15T11:48:54;2.78;;;0.75;;
60014;SDS011;45867;52.480;6.056;2022-07-15T11:51:27;1.80;;;0.60;;
60014;SDS011;45867;52.480;6.056;2022-07-15T11:53:52;7.95;;;1.02;;
60014;SDS011;45867;52.480;6.056;2022-07-15T11:56:18;1.00;;;0.60;;
60014;SDS011;45867;52.480;6.056;2022-07-15T11:58:50;1.88;;;0.80;;
60014;SDS011;45867;52.480;6.056;2022-07-15T12:01:17;2.17;;;0.70;;
60014;SDS011;45867;52.480;6.056;2022-07-15T12:03:47;4.78;;;0.85;;
60014;SDS011;45867;52.480;6.056;2022-07-15T12:11:04;4.73;;;0.70;;
60014;SDS011;45867;52.480;6.056;2022-07-15T12:13:40;4.55;;;1.20;;
60014;SDS011;45867;52.480;6.056;2022-07-15T12:16:05;12.93;;;1.30;;
60014;SDS011;45867;52.480;6.056;2022-07-15T12:18:31;5.55;;;1.23;;
60014;SDS011;45867;52.480;6.056;2022-07-15T12:20:56;1.70;;;0.70;;
60014;SDS011;45867;52.480;6.056;2022-07-15T12:23:21;3.38;;;0.95;;
60014;SDS011;45867;52.480;6.056;2022-07-15T12:26:04;1.02;;;0.60;;
60014;SDS011;45867;52.480;6.056;2022-07-15T12:28:30;5.03;;;0.90;;
60014;SDS011;45867;52.480;6.056;2022-07-15T12:30:56;1.70;;;0.98;;
60014;SDS011;45867;52.480;6.056;2022-07-15T12:33:21;7.95;;;0.95;;
60014;SDS011;45867;52.480;6.056;2022-07-15T12:35:49;2.63;;;0.80;;
60014;SDS011;45867;52.480;6.056;2022-07-15T12:38:27;5.38;;;1.05;;
60014;SDS011;45867;52.480;6.056;2022-07-15T12:43:51;2.45;;;0.85;;
60014;SDS011;45867;52.480;6.056;2022-07-15T12:46:17;5.88;;;1.00;;
60014;SDS011;45867;52.480;6.056;2022-07-15T12:48:48;2.05;;;0.60;;
60014;SDS011;45867;52.480;6.056;2022-07-15T12:51:14;2.20;;;0.75;;
60014;SDS011;45867;52.480;6.056;2022-07-15T12:53:40;3.83;;;1.00;;
60014;SDS011;45867;52.480;6.056;2022-07-15T12:56:06;2.15;;;0.90;;
60014;SDS011;45867;52.480;6.056;2022-07-15T12:58:31;2.20;;;0.90;;
60014;SDS011;45867;52.480;6.056;2022-07-15T13:01:07;3.15;;;0.73;;
60014;SDS011;45867;52.480;6.056;2022-07-15T13:03:32;1.10;;;0.70;;
60014;SDS011;45867;52.480;6.056;2022-07-15T13:05:57;7.00;;;1.10;;
60014;SDS011;45867;52.480;6.056;2022-07-15T13:08:24;2.97;;;0.90;;
60014;SDS011;45867;52.480;6.056;2022-07-15T13:10:53;1.70;;;0.80;;
60014;SDS011;45867;52.480;6.056;2022-07-15T13:13:20;5.07;;;0.95;;
60014;SDS011;45867;52.480;6.056;2022-07-15T13:15:46;3.65;;;1.00;;
60014;SDS011;45867;52.480;6.056;2022-07-15T13:18:12;2.85;;;1.00;;
60014;SDS011;45867;52.480;6.056;2022-07-15T13:20:38;3.72;;;1.02;;
60014;SDS011;45867;52.480;6.056;2022-07-15T13:23:04;3.40;;;1.00;;
60014;SDS011;45867;52.480;6.056;2022-07-15T13:25:30;3.53;;;1.00;;
60014;SDS011;45867;52.480;6.056;2022-07-15T13:27:55;2.65;;;0.98;;
60014;SDS011;45867;52.480;6.056;2022-07-15T13:30:21;4.80;;;0.98;;
60014;SDS011;45867;52.480;6.056;2022-07-15T13:32:46;7.18;;;1.10;;
60014;SDS011;45867;52.480;6.056;2022-07-15T13:35:12;1.75;;;0.73;;
60014;SDS011;45867;52.480;6.056;2022-07-15T13:37:38;8.02;;;1.05;;
60014;SDS011;45867;52.480;6.056;2022-07-15T13:40:04;2.97;;;0.82;;
60014;SDS011;45867;52.480;6.056;2022-07-15T13:42:30;0.82;;;0.65;;
60014;SDS011;45867;52.480;6.056;2022-07-15T13:44:55;4.60;;;1.15;;
60014;SDS011;45867;52.480;6.056;2022-07-15T13:47:21;2.95;;;1.20;;
60014;SDS011;45867;52.480;6.056;2022-07-15T13:49:47;5.72;;;1.42;;
60014;SDS011;45867;52.480;6.056;2022-07-15T13:52:49;5.20;;;1.30;;
60014;SDS011;45867;52.480;6.056;2022-07-15T13:55:16;2.42;;;0.90;;
60014;SDS011;45867;52.480;6.056;2022-07-15T13:57:42;4.20;;;1.05;;
60014;SDS011;45867;52.480;6.056;2022-07-15T14:00:09;3.42;;;1.00;;
60014;SDS011;45867;52.480;6.056;2022-07-15T14:02:37;3.35;;;1.20;;
60014;SDS011;45867;52.480;6.056;2022-07-15T14:05:02;4.75;;;1.45;;
60014;SDS011;45867;52.480;6.056;2022-07-15T14:07:28;5.53;;;1.17;;
60014;SDS011;45867;52.480;6.056;2022-07-15T14:09:53;4.05;;;1.23;;
60014;SDS011;45867;52.480;6.056;2022-07-15T14:12:19;4.65;;;1.63;;
60014;SDS011;45867;52.480;6.056;2022-07-15T14:14:44;2.60;;;1.10;;
60014;SDS011;45867;52.480;6.056;2022-07-15T14:17:31;3.85;;;1.17;;
60014;SDS011;45867;52.480;6.056;2022-07-15T14:19:56;2.92;;;1.17;;
60014;SDS011;45867;52.480;6.056;2022-07-15T14:22:22;5.15;;;1.60;;
60014;SDS011;45867;52.480;6.056;2022-07-15T14:24:47;5.05;;;1.27;;
60014;SDS011;45867;52.480;6.056;2022-07-15T14:27:13;7.18;;;1.30;;
60014;SDS011;45867;52.480;6.056;2022-07-15T14:29:38;3.50;;;1.20;;
60014;SDS011;45867;52.480;6.056;2022-07-15T14:32:04;3.35;;;1.50;;
60014;SDS011;45867;52.480;6.056;2022-07-15T14:34:29;4.72;;;1.50;;
60014;SDS011;45867;52.480;6.056;2022-07-15T14:36:54;2.93;;;1.37;;
60014;SDS011;45867;52.480;6.056;2022-07-15T14:39:19;2.72;;;1.45;;
60014;SDS011;45867;52.480;6.056;2022-07-15T14:41:45;2.53;;;1.38;;
60014;SDS011;45867;52.480;6.056;2022-07-15T14:44:10;7.00;;;1.40;;
60014;SDS011;45867;52.480;6.056;2022-07-15T14:46:35;2.97;;;1.40;;
60014;SDS011;45867;52.480;6.056;2022-07-15T14:49:01;3.63;;;1.50;;
60014;SDS011;45867;52.480;6.056;2022-07-15T14:51:26;6.60;;;1.67;;
60014;SDS011;45867;52.480;6.056;2022-07-15T14:53:51;4.87;;;1.80;;
60014;SDS011;45867;52.480;6.056;2022-07-15T14:56:16;5.15;;;1.90;;
60014;SDS011;45867;52.480;6.056;2022-07-15T14:58:42;5.87;;;1.73;;
60014;SDS011;45867;52.480;6.056;2022-07-15T15:01:07;4.60;;;1.73;;
60014;SDS011;45867;52.480;6.056;2022-07-15T15:03:32;4.15;;;1.73;;
60014;SDS011;45867;52.480;6.056;2022-07-15T15:05:57;7.97;;;1.83;;
60014;SDS011;45867;52.480;6.056;2022-07-15T15:08:23;5.40;;;1.75;;
60014;SDS011;45867;52.480;6.056;2022-07-15T15:10:49;7.60;;;1.67;;
60014;SDS011;45867;52.480;6.056;2022-07-15T15:13:14;2.67;;;1.70;;
60014;SDS011;45867;52.480;6.056;2022-07-15T15:15:40;5.03;;;1.60;;
60014;SDS011;45867;52.480;6.056;2022-07-15T15:18:05;9.40;;;1.45;;
60014;SDS011;45867;52.480;6.056;2022-07-15T15:24:00;6.22;;;1.70;;
60014;SDS011;45867;52.480;6.056;2022-07-15T15:30:11;6.07;;;2.00;;
60014;SDS011;45867;52.480;6.056;2022-07-15T15:32:36;7.15;;;1.85;;
60014;SDS011;45867;52.480;6.056;2022-07-15T15:35:01;4.18;;;1.77;;
60014;SDS011;45867;52.480;6.056;2022-07-15T15:37:27;4.60;;;1.65;;